Time;durP1;ratioP1;P1;durP2;ratioP2;P2;SDS_P1;SDS_P2;PMS_P1;PMS_P2;Temp;Humidity;BMP_temperature;BMP_pressure;BME280_temperature;BME280_humidity;BME280_pressure;Samples;Min_cycle;Max_cycle;Signal;HPM_P1;HPM_P2
2023/07/22 00:00:13;;;;;;;3.20;2.30;;;;;;;26.65;62.43;101468.38;106804;1268;25364;-52
2023/07/22 00:02:42;;;;;;;3.30;2.30;;;;;;;26.65;62.38;101476.41;106811;1266;25440;-51
2023/07/22 00:05:10;;;;;;;2.80;2.40;;;;;;;26.63;62.28;101481.13;107092;1260;24359;-50
2023/07/22 00:07:37;;;;;;;2.70;2.10;;;;;;;26.62;62.36;101479.99;107111;1267;25351;-50
2023/07/22 00:10:05;;;;;;;3.60;2.40;;;;;;;26.61;62.34;101486.09;107092;1264;25375;-51
2023/07/22 00:12:33;;;;;;;2.60;2.40;;;;;;;26.60;62.46;101485.64;107008;1257;25347;-51
2023/07/22 00:15:00;;;;;;;2.80;2.60;;;;;;;26.59;62.41;101483.21;106925;1267;25447;-50
2023/07/22 00:17:27;;;;;;;2.10;2.00;;;;;;;26.59;62.40;101477.35;107041;1252;25335;-54
2023/07/22 00:19:54;;;;;;;2.50;2.30;;;;;;;26.58;62.37;101468.91;106855;1263;25391;-51
2023/07/22 00:22:21;;;;;;;3.10;2.30;;;;;;;26.58;62.45;101462.70;106862;1258;25430;-54
2023/07/22 00:24:48;;;;;;;3.50;2.30;;;;;;;26.56;62.62;101456.04;106755;1259;24263;-50
2023/07/22 00:27:16;;;;;;;3.10;2.30;;;;;;;26.55;62.67;101452.60;107096;1262;25364;-49
2023/07/22 00:29:43;;;;;;;2.50;2.30;;;;;;;26.54;62.77;101448.41;107059;1257;25353;-50
2023/07/22 00:32:10;;;;;;;3.00;2.60;;;;;;;26.54;62.89;101446.46;107093;1267;25463;-50
2023/07/22 00:34:39;;;;;;;2.90;2.70;;;;;;;26.53;63.01;101448.64;107109;1267;25390;-50
2023/07/22 00:37:06;;;;;;;2.80;2.20;;;;;;;26.52;63.13;101461.89;107087;1267;25339;-50
2023/07/22 00:39:34;;;;;;;3.20;2.30;;;;;;;26.52;63.19;101469.42;106931;1266;25395;-50
2023/07/22 00:42:01;;;;;;;2.30;2.10;;;;;;;26.51;63.28;101469.45;106868;1267;25380;-50
2023/07/22 00:44:28;;;;;;;2.90;2.30;;;;;;;26.50;63.31;101468.29;106871;1251;23189;-50
2023/07/22 00:46:56;;;;;;;2.00;1.90;;;;;;;26.49;63.23;101470.30;106984;1263;25328;-50
2023/07/22 00:49:23;;;;;;;2.60;2.40;;;;;;;26.48;63.34;101470.94;106876;1260;22553;-50
2023/07/22 00:51:50;;;;;;;3.10;2.30;;;;;;;26.47;63.30;101471.36;106972;1267;25335;-50
2023/07/22 00:54:17;;;;;;;2.90;2.20;;;;;;;26.46;63.37;101478.38;106745;1267;25373;-50
2023/07/22 00:56:45;;;;;;;2.00;1.90;;;;;;;26.45;63.31;101481.67;107133;1259;25359;-51
2023/07/22 00:59:12;;;;;;;3.60;2.20;;;;;;;26.44;63.47;101489.55;107217;1264;25373;-50
2023/07/22 01:01:40;;;;;;;2.20;2.00;;;;;;;26.44;63.60;101491.91;106613;1264;25491;-50
2023/07/22 01:04:07;;;;;;;3.10;2.30;;;;;;;26.43;63.73;101493.23;106423;1271;25335;-50
2023/07/22 01:06:37;;;;;;;2.20;2.00;;;;;;;26.42;63.91;101497.54;106602;1265;25365;-50
2023/07/22 01:09:07;;;;;;;2.70;2.40;;;;;;;26.41;63.96;101492.65;106707;1264;25483;-50
2023/07/22 01:11:33;;;;;;;3.00;2.30;;;;;;;26.41;64.19;101496.20;106664;1269;22534;-51
2023/07/22 01:14:01;;;;;;;2.30;2.10;;;;;;;26.41;64.33;101483.79;106681;1264;24247;-50
2023/07/22 01:16:28;;;;;;;2.50;2.10;;;;;;;26.40;64.29;101478.31;106435;1268;25345;-50
2023/07/22 01:18:56;;;;;;;3.00;2.20;;;;;;;26.39;64.43;101472.90;106461;1263;22644;-50
2023/07/22 01:21:24;;;;;;;2.30;2.20;;;;;;;26.38;64.53;101462.63;106524;1268;25637;-50
2023/07/22 01:23:51;;;;;;;3.50;2.50;;;;;;;26.37;64.54;101458.23;106612;1261;25477;-50
2023/07/22 01:26:19;;;;;;;2.90;2.40;;;;;;;26.37;64.77;101454.38;106611;1267;25339;-51
2023/07/22 01:28:45;;;;;;;1.90;1.80;;;;;;;26.36;64.89;101445.88;106592;1261;24445;-50
2023/07/22 01:31:12;;;;;;;2.40;2.20;;;;;;;26.35;64.95;101444.74;106470;1271;25411;-50
2023/07/22 01:33:42;;;;;;;2.60;2.20;;;;;;;26.34;65.09;101446.20;107021;1270;25407;-50
2023/07/22 01:36:09;;;;;;;3.00;2.70;;;;;;;26.34;65.23;101445.69;107091;1256;25345;-50
2023/07/22 01:38:36;;;;;;;2.40;2.20;;;;;;;26.33;65.31;101436.15;106939;1264;25485;-50
2023/07/22 01:41:03;;;;;;;2.90;2.60;;;;;;;26.33;65.38;101436.53;106819;1267;25384;-50
2023/07/22 01:43:31;;;;;;;2.70;2.10;;;;;;;26.32;65.55;101436.77;107142;1263;25472;-50
2023/07/22 01:45:57;;;;;;;3.60;2.10;;;;;;;26.31;65.41;101432.21;107067;1267;25482;-50
2023/07/22 01:48:25;;;;;;;2.40;2.30;;;;;;;26.31;65.42;101431.20;106827;1267;25325;-50
2023/07/22 01:50:52;;;;;;;2.30;2.20;;;;;;;26.31;65.43;101433.34;106702;1268;25410;-50
2023/07/22 01:53:20;;;;;;;2.40;2.10;;;;;;;26.30;65.49;101430.70;106808;1271;25360;-49
2023/07/22 01:55:47;;;;;;;2.50;2.30;;;;;;;26.30;65.46;101428.76;106779;1267;25339;-51
2023/07/22 01:58:14;;;;;;;2.10;1.90;;;;;;;26.29;65.43;101425.83;106553;1268;25333;-51
2023/07/22 02:00:41;;;;;;;3.20;2.10;;;;;;;26.29;65.55;101428.87;106776;1258;25617;-50
2023/07/22 02:03:09;;;;;;;1.80;1.70;;;;;;;26.28;65.67;101434.61;106705;1259;25350;-50
2023/07/22 02:05:36;;;;;;;2.30;2.10;;;;;;;26.28;65.79;101441.16;106739;1267;25402;-51
2023/07/22 02:08:04;;;;;;;2.40;2.20;;;;;;;26.29;66.06;101440.60;106799;1267;25361;-51
2023/07/22 02:10:32;;;;;;;2.30;2.10;;;;;;;26.29;66.21;101433.98;106679;1271;25351;-51
2023/07/22 02:12:59;;;;;;;4.20;2.20;;;;;;;26.29;66.36;101429.19;106780;1259;25335;-50
2023/07/22 02:15:27;;;;;;;4.10;2.40;;;;;;;26.30;66.49;101429.66;106822;1258;25413;-50
2023/07/22 02:17:55;;;;;;;2.50;1.90;;;;;;;26.30;66.69;101426.12;106737;1267;25350;-50
2023/07/22 02:20:22;;;;;;;2.00;1.90;;;;;;;26.29;66.87;101424.92;106724;1270;25339;-50
2023/07/22 02:22:49;;;;;;;2.30;2.10;;;;;;;26.30;66.89;101423.96;106748;1258;25523;-50
2023/07/22 02:25:19;;;;;;;2.30;2.10;;;;;;;26.29;66.95;101422.60;106967;1264;25369;-51
2023/07/22 02:27:46;;;;;;;2.90;2.10;;;;;;;26.30;66.85;101427.16;107044;1253;25469;-51
2023/07/22 02:30:13;;;;;;;2.40;1.90;;;;;;;26.29;66.73;101430.81;107058;1253;25354;-49
2023/07/22 02:32:41;;;;;;;2.50;1.80;;;;;;;26.28;66.52;101434.21;107269;1251;25373;-49
2023/07/22 02:35:09;;;;;;;2.00;1.80;;;;;;;26.28;66.27;101429.79;107160;1267;25366;-50
2023/07/22 02:37:38;;;;;;;5.00;2.60;;;;;;;26.28;66.05;101429.08;107161;1259;25343;-50
2023/07/22 02:40:11;;;;;;;2.00;1.90;;;;;;;26.28;65.88;101425.16;107075;1259;22650;-50
2023/07/22 02:42:39;;;;;;;2.40;1.90;;;;;;;26.29;65.52;101428.33;106758;1267;25489;-50
2023/07/22 02:45:07;;;;;;;2.60;2.00;;;;;;;26.29;65.36;101429.58;106731;1267;22639;-50
2023/07/22 02:47:35;;;;;;;3.40;2.40;;;;;;;26.29;65.15;101429.56;107164;1255;25230;-50
2023/07/22 02:50:03;;;;;;;2.40;1.90;;;;;;;26.29;64.84;101424.58;107115;1256;25412;-50
2023/07/22 02:52:30;;;;;;;2.20;2.00;;;;;;;26.29;64.63;101422.95;107110;1256;24186;-49
2023/07/22 02:55:14;;;;;;;3.60;2.30;;;;;;;26.30;64.56;101418.98;107139;1263;25336;-50
2023/07/22 02:57:42;;;;;;;2.40;2.20;;;;;;;26.31;64.45;101420.89;107097;1256;25354;-50
2023/07/22 03:00:13;;;;;;;2.20;2.00;;;;;;;26.32;64.54;101418.85;107072;1270;25310;-50
2023/07/22 03:02:40;;;;;;;1.90;1.80;;;;;;;26.32;64.41;101419.02;107012;1267;25297;-50
2023/07/22 03:05:08;;;;;;;2.20;2.00;;;;;;;26.33;64.51;101414.68;106818;1267;25364;-50
2023/07/22 03:07:36;;;;;;;3.00;2.20;;;;;;;26.33;64.55;101414.10;107219;1256;25367;-50
2023/07/22 03:10:07;;;;;;;2.10;1.90;;;;;;;26.34;64.62;101418.87;106937;1267;25474;-50
2023/07/22 03:12:35;;;;;;;2.20;2.00;;;;;;;26.34;64.56;101417.39;106846;1256;24205;-49
2023/07/22 03:15:09;;;;;;;2.80;2.30;;;;;;;26.35;64.43;101418.39;107052;1251;22538;-50
2023/07/22 03:17:37;;;;;;;2.20;1.90;;;;;;;26.36;64.52;101422.38;106885;1262;25373;-50
2023/07/22 03:20:08;;;;;;;3.30;2.30;;;;;;;26.38;64.41;101424.20;107031;1267;25364;-50
2023/07/22 03:22:37;;;;;;;2.40;2.20;;;;;;;26.40;64.38;101428.13;107187;1267;25338;-50
2023/07/22 03:25:07;;;;;;;2.30;2.00;;;;;;;26.42;64.36;101432.63;107148;1255;22539;-50
2023/07/22 03:27:35;;;;;;;4.80;2.00;;;;;;;26.44;64.35;101429.94;106868;1260;25447;-50
2023/07/22 03:30:03;;;;;;;2.10;1.90;;;;;;;26.46;64.34;101428.38;107180;1260;25336;-50
2023/07/22 03:32:31;;;;;;;3.30;2.20;;;;;;;26.47;64.38;101424.37;107091;1262;25288;-49
2023/07/22 03:34:59;;;;;;;3.20;2.00;;;;;;;26.50;64.32;101424.55;107233;1263;25527;-50
2023/07/22 03:37:26;;;;;;;2.10;2.00;;;;;;;26.52;64.37;101430.95;107133;1263;23361;-50
2023/07/22 03:39:53;;;;;;;2.40;2.20;;;;;;;26.55;64.52;101436.39;106832;1267;25343;-50
2023/07/22 03:42:20;;;;;;;4.30;2.30;;;;;;;26.62;64.60;101441.36;107078;1262;25325;-50
2023/07/22 03:44:49;;;;;;;3.80;1.80;;;;;;;26.73;64.54;101438.94;107010;1271;25469;-50
2023/07/22 03:47:17;;;;;;;2.40;2.10;;;;;;;26.84;64.22;101437.66;106749;1269;22545;-50
2023/07/22 03:49:44;;;;;;;2.80;2.00;;;;;;;26.95;63.83;101440.22;107082;1266;25389;-50
2023/07/22 03:52:14;;;;;;;2.50;2.30;;;;;;;27.08;63.57;101442.67;106896;1257;25472;-51
2023/07/22 03:54:41;;;;;;;2.90;1.90;;;;;;;27.32;63.38;101433.84;107146;1256;25597;-50
2023/07/22 03:57:08;;;;;;;3.40;1.90;;;;;;;27.70;62.68;101423.44;107026;1263;25479;-50
2023/07/22 03:59:35;;;;;;;3.70;2.10;;;;;;;28.15;61.35;101420.45;107050;1261;25335;-51
2023/07/22 04:02:03;;;;;;;2.20;1.90;;;;;;;28.57;59.84;101419.48;106842;1267;25335;-51
2023/07/22 04:04:30;;;;;;;2.30;1.90;;;;;;;28.84;58.53;101418.78;107047;1262;22736;-51
2023/07/22 04:06:57;;;;;;;2.00;1.90;;;;;;;28.98;57.68;101410.52;106908;1261;24502;-51
2023/07/22 04:09:23;;;;;;;4.00;2.20;;;;;;;29.06;57.02;101412.89;106640;1274;25484;-50
2023/07/22 04:11:52;;;;;;;2.00;1.80;;;;;;;29.07;56.78;101414.75;107098;1263;25474;-49
2023/07/22 04:14:19;;;;;;;2.60;1.70;;;;;;;29.04;56.75;101416.49;107196;1252;25517;-50
2023/07/22 04:16:46;;;;;;;3.30;2.30;;;;;;;28.96;56.87;101413.91;107176;1256;25325;-50
2023/07/22 04:19:13;;;;;;;3.00;2.20;;;;;;;28.89;57.12;101415.66;107118;1263;25356;-49
2023/07/22 04:21:41;;;;;;;3.40;2.50;;;;;;;28.81;57.31;101414.59;106848;1268;24233;-49
2023/07/22 04:24:10;;;;;;;2.90;2.10;;;;;;;28.73;57.57;101411.88;107123;1265;25316;-49
2023/07/22 04:26:41;;;;;;;3.80;2.10;;;;;;;28.66;57.60;101408.06;107125;1264;22538;-49
2023/07/22 04:29:09;;;;;;;3.00;2.10;;;;;;;28.59;57.88;101407.42;107121;1262;22553;-50
2023/07/22 04:31:38;;;;;;;6.00;2.40;;;;;;;28.51;58.02;101406.09;106915;1261;22562;-50
2023/07/22 04:34:08;;;;;;;3.70;2.20;;;;;;;28.44;58.17;101405.46;107259;1252;25542;-50
2023/07/22 04:36:36;;;;;;;2.90;2.30;;;;;;;28.38;58.28;101401.34;107034;1264;25339;-50
2023/07/22 04:39:06;;;;;;;2.50;2.20;;;;;;;28.32;58.34;101406.52;107081;1263;22522;-50
2023/07/22 04:41:33;;;;;;;4.80;2.50;;;;;;;28.26;58.56;101409.73;106797;1259;25488;-50
2023/07/22 04:44:01;;;;;;;3.70;2.40;;;;;;;28.19;59.02;101411.95;106922;1267;25395;-50
2023/07/22 04:46:28;;;;;;;2.80;2.20;;;;;;;28.12;59.41;101416.45;107188;1260;25363;-50
2023/07/22 04:48:57;;;;;;;3.40;2.80;;;;;;;28.06;59.71;101422.69;107065;1264;25412;-49
2023/07/22 04:51:25;;;;;;;3.80;2.40;;;;;;;28.01;59.87;101420.41;107167;1264;25348;-49
2023/07/22 04:53:54;;;;;;;3.00;2.50;;;;;;;27.98;60.22;101405.86;107078;1256;25400;-50
2023/07/22 04:56:21;;;;;;;2.50;2.20;;;;;;;27.96;60.21;101398.20;107081;1263;25522;-49
2023/07/22 04:58:49;;;;;;;4.10;2.80;;;;;;;27.94;60.29;101404.23;107077;1262;25335;-50
2023/07/22 05:01:15;;;;;;;3.10;2.60;;;;;;;27.93;60.38;101409.68;107095;1267;25357;-50
2023/07/22 05:03:43;;;;;;;4.10;2.50;;;;;;;27.92;60.32;101408.19;107131;1262;22653;-50
2023/07/22 05:06:10;;;;;;;2.90;2.50;;;;;;;27.92;60.34;101406.55;107133;1265;25408;-50
2023/07/22 05:08:38;;;;;;;2.90;2.70;;;;;;;27.93;60.35;101401.69;107119;1260;25336;-49
2023/07/22 05:11:06;;;;;;;5.60;2.60;;;;;;;27.93;60.27;101400.39;107088;1264;25348;-51
2023/07/22 05:13:36;;;;;;;5.90;2.90;;;;;;;27.94;60.13;101393.88;106896;1266;25328;-50
2023/07/22 05:16:03;;;;;;;4.30;2.70;;;;;;;27.98;60.09;101388.71;107061;1261;25335;-50
2023/07/22 05:18:31;;;;;;;3.10;2.80;;;;;;;28.10;59.82;101395.40;107189;1259;25427;-51
2023/07/22 05:20:58;;;;;;;4.10;2.50;;;;;;;28.28;59.39;101384.54;106996;1268;25357;-50
2023/07/22 05:23:25;;;;;;;4.40;2.20;;;;;;;28.51;58.86;101380.27;107070;1263;25512;-50
2023/07/22 05:25:53;;;;;;;6.80;2.80;;;;;;;28.73;58.13;101378.09;107108;1259;25345;-50
2023/07/22 05:28:20;;;;;;;2.80;2.50;;;;;;;28.95;57.29;101369.70;107147;1251;22530;-49
2023/07/22 05:30:51;;;;;;;3.80;2.40;;;;;;;29.17;56.47;101365.45;106827;1259;25338;-50
2023/07/22 05:33:18;;;;;;;3.80;2.60;;;;;;;29.37;55.74;101348.97;107093;1262;25338;-50
2023/07/22 05:35:45;;;;;;;3.80;2.50;;;;;;;29.56;54.98;101343.63;107083;1267;25380;-50
2023/07/22 05:38:15;;;;;;;3.90;2.80;;;;;;;29.75;54.50;101341.38;107059;1256;25328;-50
2023/07/22 05:40:43;;;;;;;3.60;2.70;;;;;;;29.91;53.72;101339.32;106776;1264;25336;-51
2023/07/22 05:43:09;;;;;;;5.30;2.80;;;;;;;30.05;53.06;101333.33;107042;1264;25481;-51
2023/07/22 05:45:37;;;;;;;3.50;2.30;;;;;;;30.17;52.55;101328.88;107121;1255;25412;-50
2023/07/22 05:48:05;;;;;;;3.80;2.70;;;;;;;30.28;52.43;101326.27;106703;1271;25472;-49
2023/07/22 05:50:32;;;;;;;4.50;2.70;;;;;;;30.37;51.89;101327.36;106928;1265;22530;-49
2023/07/22 05:52:59;;;;;;;4.10;2.50;;;;;;;30.46;51.65;101327.21;107050;1257;25393;-49
2023/07/22 05:55:27;;;;;;;4.60;2.80;;;;;;;30.56;51.38;101335.23;107098;1256;25360;-49
2023/07/22 05:57:54;;;;;;;4.70;2.80;;;;;;;30.67;51.27;101344.69;107198;1263;25389;-49
2023/07/22 06:00:21;;;;;;;4.80;3.20;;;;;;;30.76;51.01;101344.00;107035;1267;23248;-50
2023/07/22 06:02:48;;;;;;;5.30;3.10;;;;;;;30.80;50.88;101344.69;106842;1266;25412;-49
2023/07/22 06:05:17;;;;;;;3.30;2.90;;;;;;;30.77;50.79;101354.64;107136;1251;25357;-50
2023/07/22 06:07:44;;;;;;;4.00;3.00;;;;;;;30.70;50.79;101371.15;107162;1253;22533;-49
2023/07/22 06:10:11;;;;;;;6.80;3.50;;;;;;;30.60;50.96;101372.23;106844;1258;25399;-48
2023/07/22 06:12:39;;;;;;;5.00;3.30;;;;;;;30.49;51.09;101381.29;106885;1263;25418;-50
2023/07/22 06:15:06;;;;;;;4.40;3.20;;;;;;;30.37;51.33;101385.54;107098;1256;24192;-49
2023/07/22 06:17:34;;;;;;;5.50;3.10;;;;;;;30.24;51.78;101385.39;106935;1256;25485;-49
2023/07/22 06:20:05;;;;;;;5.90;3.20;;;;;;;30.07;52.03;101379.27;106762;1266;25485;-49
2023/07/22 06:22:32;;;;;;;5.30;3.40;;;;;;;29.92;52.40;101370.19;107127;1263;22781;-49
2023/07/22 06:24:59;;;;;;;4.80;2.90;;;;;;;29.79;52.83;101367.81;107088;1263;25402;-50
2023/07/22 06:27:27;;;;;;;6.20;3.40;;;;;;;29.69;52.99;101373.33;107105;1264;25343;-49
2023/07/22 06:29:55;;;;;;;4.80;3.00;;;;;;;29.62;53.34;101376.16;107092;1257;25364;-49
2023/07/22 06:32:22;;;;;;;6.10;3.60;;;;;;;29.56;53.46;101373.09;107150;1255;25363;-50
2023/07/22 06:34:49;;;;;;;5.40;3.20;;;;;;;29.51;53.84;101360.50;107128;1256;25333;-49
2023/07/22 06:37:16;;;;;;;4.50;3.70;;;;;;;29.48;53.95;101345.14;106653;1275;25363;-49
2023/07/22 06:39:44;;;;;;;5.70;3.30;;;;;;;29.43;53.97;101334.86;107060;1264;25332;-50
2023/07/22 06:42:10;;;;;;;8.10;3.90;;;;;;;29.38;54.01;101339.23;107121;1262;25339;-49
2023/07/22 06:44:38;;;;;;;4.00;3.40;;;;;;;29.33;53.91;101357.02;106859;1273;25482;-49
2023/07/22 06:47:05;;;;;;;4.00;3.70;;;;;;;29.29;54.07;101361.71;106847;1269;25363;-50
2023/07/22 06:49:32;;;;;;;8.70;4.10;;;;;;;29.23;54.27;101352.20;107128;1264;22538;-50
2023/07/22 06:52:01;;;;;;;4.80;3.30;;;;;;;29.17;54.61;101343.63;106733;1261;22526;-49
2023/07/22 06:54:29;;;;;;;6.30;3.70;;;;;;;29.11;54.75;101338.11;106795;1260;25272;-49
2023/07/22 06:57:00;;;;;;;4.00;3.60;;;;;;;29.05;55.06;101340.11;107100;1265;25485;-49
2023/07/22 06:59:32;;;;;;;4.70;3.10;;;;;;;29.00;55.30;101344.13;107013;1265;25349;-49
2023/07/22 07:02:00;;;;;;;7.50;3.50;;;;;;;28.94;55.46;101345.69;106993;1263;25496;-50
2023/07/22 07:04:41;;;;;;;3.50;3.20;;;;;;;28.88;55.67;101342.52;106764;1267;25402;-49
2023/07/22 07:07:09;;;;;;;6.80;3.60;;;;;;;28.84;55.95;101342.16;107056;1257;25335;-50
2023/07/22 07:09:37;;;;;;;6.40;3.60;;;;;;;28.79;56.26;101343.47;107086;1255;25551;-50
2023/07/22 07:12:05;;;;;;;7.40;3.70;;;;;;;28.75;56.63;101347.58;107023;1263;25429;-50
2023/07/22 07:14:32;;;;;;;6.30;3.70;;;;;;;28.73;56.96;101353.63;106902;1268;25485;-50
2023/07/22 07:17:02;;;;;;;4.20;3.30;;;;;;;28.70;57.10;101342.70;107082;1259;25447;-49
2023/07/22 07:19:29;;;;;;;6.10;3.40;;;;;;;28.65;57.44;101348.67;107131;1259;24778;-49
2023/07/22 07:21:55;;;;;;;7.00;4.00;;;;;;;28.58;57.83;101362.48;107037;1258;25335;-49
2023/07/22 07:24:22;;;;;;;7.60;3.80;;;;;;;28.55;58.04;101373.65;107172;1265;25388;-50
2023/07/22 07:26:49;;;;;;;5.70;3.60;;;;;;;28.48;58.32;101379.23;107081;1263;25410;-51
2023/07/22 07:29:16;;;;;;;5.80;3.20;;;;;;;28.44;58.54;101378.38;106741;1263;25338;-49
2023/07/22 07:32:05;;;;;;;4.50;3.20;;;;;;;28.38;58.77;101371.73;107052;1265;25347;-50
2023/07/22 07:34:32;;;;;;;5.00;3.70;;;;;;;28.34;59.00;101365.14;107125;1262;25593;-50
2023/07/22 07:37:00;;;;;;;7.00;3.90;;;;;;;28.32;59.31;101360.66;107072;1265;25335;-49
2023/07/22 07:39:28;;;;;;;3.40;3.00;;;;;;;28.29;59.44;101355.80;107092;1265;25479;-50
2023/07/22 07:41:55;;;;;;;6.50;3.60;;;;;;;28.27;59.23;101351.31;107050;1256;25357;-50
2023/07/22 07:44:22;;;;;;;6.30;3.40;;;;;;;28.25;59.43;101347.53;107055;1269;22538;-51
2023/07/22 07:46:49;;;;;;;8.50;5.00;;;;;;;28.23;59.64;101345.55;106965;1257;25357;-50
2023/07/22 07:49:18;;;;;;;7.70;3.90;;;;;;;28.21;59.66;101344.46;106918;1265;26677;-50
2023/07/22 07:51:46;;;;;;;6.60;3.50;;;;;;;28.19;59.93;101342.68;106764;1267;22632;-50
2023/07/22 07:54:13;;;;;;;12.30;3.90;;;;;;;28.17;59.96;101341.43;106924;1272;25510;-50
2023/07/22 07:56:42;;;;;;;7.30;3.60;;;;;;;28.14;60.24;101344.57;106959;1256;308889;-54
2023/07/22 07:59:09;;;;;;;4.80;3.20;;;;;;;28.13;60.15;101347.17;107086;1265;22553;-49
2023/07/22 08:01:41;;;;;;;7.30;3.50;;;;;;;28.11;60.29;101353.23;107026;1265;25360;-49
2023/07/22 08:04:11;;;;;;;5.50;3.70;;;;;;;28.09;60.46;101357.08;107253;1263;25417;-49
2023/07/22 08:06:38;;;;;;;7.70;3.20;;;;;;;28.08;60.62;101360.27;107108;1265;25452;-50
2023/07/22 08:09:05;;;;;;;6.10;4.50;;;;;;;28.09;60.77;101365.19;107117;1253;25309;-50
2023/07/22 08:11:33;;;;;;;6.70;3.90;;;;;;;28.05;60.69;101361.94;107119;1256;25325;-49
2023/07/22 08:14:01;;;;;;;7.30;4.20;;;;;;;28.03;60.93;101359.63;106737;1256;25344;-49
2023/07/22 08:16:29;;;;;;;6.20;3.80;;;;;;;28.00;61.04;101351.14;107126;1260;25335;-49
2023/07/22 08:18:56;;;;;;;6.30;4.10;;;;;;;27.97;61.14;101343.20;107140;1256;25324;-49
2023/07/22 08:21:23;;;;;;;11.00;3.70;;;;;;;27.94;61.38;101335.60;107100;1265;25340;-50
2023/07/22 08:23:50;;;;;;;7.10;3.80;;;;;;;27.91;61.55;101316.45;106789;1268;25347;-50
2023/07/22 08:26:20;;;;;;;7.30;4.00;;;;;;;27.88;61.61;101317.23;107107;1262;25866;-50
2023/07/22 08:28:48;;;;;;;5.20;3.60;;;;;;;27.85;61.85;101306.02;106788;1262;25328;-50
2023/07/22 08:31:15;;;;;;;7.40;3.80;;;;;;;27.84;62.30;101291.02;106759;1269;25335;-50
2023/07/22 08:33:42;;;;;;;8.10;4.00;;;;;;;27.82;62.65;101279.36;107034;1267;25331;-50
2023/07/22 08:36:10;;;;;;;5.60;3.80;;;;;;;27.82;62.76;101272.44;107155;1267;23195;-48
2023/07/22 08:38:37;;;;;;;5.20;3.70;;;;;;;27.83;63.07;101270.41;107054;1256;25521;-50
2023/07/22 08:41:04;;;;;;;6.90;3.80;;;;;;;27.84;63.22;101271.58;107108;1259;25421;-50
2023/07/22 08:43:31;;;;;;;10.10;3.90;;;;;;;27.86;63.03;101273.67;107129;1253;25372;-50
2023/07/22 08:46:00;;;;;;;5.20;3.90;;;;;;;27.90;63.01;101284.08;106995;1256;25318;-51
2023/07/22 08:48:34;;;;;;;5.40;3.90;;;;;;;27.94;63.26;101291.04;107115;1256;25360;-50
2023/07/22 08:51:06;;;;;;;5.70;3.60;;;;;;;27.98;63.13;101301.36;106996;1259;25366;-50
2023/07/22 08:53:33;;;;;;;6.60;3.90;;;;;;;28.06;63.33;101308.55;107187;1262;25315;-50
2023/07/22 08:56:01;;;;;;;6.50;3.60;;;;;;;28.17;63.49;101314.19;107095;1257;25376;-50
2023/07/22 08:58:29;;;;;;;6.30;3.80;;;;;;;28.30;62.97;101310.51;106883;1266;25481;-49
2023/07/22 09:00:56;;;;;;;5.70;3.90;;;;;;;28.44;62.20;101308.40;107105;1265;25314;-50
2023/07/22 09:03:24;;;;;;;8.40;3.60;;;;;;;28.57;61.83;101312.03;106792;1261;25412;-49
2023/07/22 09:05:51;;;;;;;6.30;4.00;;;;;;;28.70;61.51;101310.38;107023;1263;25450;-50
2023/07/22 09:08:18;;;;;;;6.80;3.50;;;;;;;28.82;61.02;101305.30;106700;1266;25475;-50
2023/07/22 09:10:46;;;;;;;6.50;3.80;;;;;;;28.94;60.60;101306.35;106832;1270;25315;-50
2023/07/22 09:13:14;;;;;;;6.50;3.50;;;;;;;29.06;59.99;101305.56;106764;1263;25481;-50
2023/07/22 09:15:42;;;;;;;5.70;3.60;;;;;;;29.16;59.63;101302.18;106857;1260;25328;-49
2023/07/22 09:18:09;;;;;;;4.50;3.70;;;;;;;29.25;59.19;101295.80;106770;1260;25509;-50
2023/07/22 09:20:37;;;;;;;5.90;3.70;;;;;;;29.32;58.86;101299.17;106814;1257;25478;-50
2023/07/22 09:23:06;;;;;;;4.00;3.30;;;;;;;29.40;58.32;101309.23;106762;1268;24640;-51
2023/07/22 09:25:41;;;;;;;4.90;4.40;;;;;;;29.44;57.69;101307.89;106882;1266;25318;-51
2023/07/22 09:28:09;;;;;;;6.50;4.60;;;;;;;29.47;57.11;101298.55;106840;1266;25413;-48
2023/07/22 09:30:38;;;;;;;4.90;4.00;;;;;;;29.43;56.65;101297.08;106973;1260;25561;-50
2023/07/22 09:33:07;;;;;;;7.40;4.00;;;;;;;29.36;56.28;101298.11;107001;1258;22596;-50
2023/07/22 09:35:47;;;;;;;7.40;4.10;;;;;;;29.30;56.47;101290.86;106825;1259;25523;-49
2023/07/22 09:38:17;;;;;;;4.50;3.70;;;;;;;29.26;56.39;101292.64;106954;1260;23448;-50
2023/07/22 09:40:44;;;;;;;5.90;4.00;;;;;;;29.24;55.76;101297.07;107322;1256;24255;-50
2023/07/22 09:43:14;;;;;;;5.50;3.80;;;;;;;29.24;55.44;101296.89;107176;1259;25321;-49
2023/07/22 09:45:41;;;;;;;6.60;4.50;;;;;;;29.24;55.22;101296.56;107193;1267;23174;-49
2023/07/22 09:48:09;;;;;;;6.30;3.40;;;;;;;29.24;55.46;101298.39;106996;1260;25408;-49
2023/07/22 09:50:37;;;;;;;3.70;3.40;;;;;;;29.23;55.69;101295.90;107015;1256;25881;-50
2023/07/22 09:53:06;;;;;;;4.90;3.50;;;;;;;29.22;55.26;101293.71;107207;1256;25401;-49
2023/07/22 09:55:33;;;;;;;4.90;3.40;;;;;;;29.22;55.41;101289.39;107061;1255;25336;-50
2023/07/22 09:58:02;;;;;;;6.70;4.20;;;;;;;29.23;55.21;101284.84;107400;1263;25349;-50
2023/07/22 10:00:33;;;;;;;4.40;3.70;;;;;;;29.25;55.08;101282.70;107394;1262;24249;-49
2023/07/22 10:03:05;;;;;;;4.60;3.60;;;;;;;29.28;55.00;101282.41;107234;1254;23471;-50
2023/07/22 10:05:34;;;;;;;3.60;3.20;;;;;;;29.32;54.77;101282.64;107167;1258;24313;-49
2023/07/22 10:08:05;;;;;;;4.80;3.50;;;;;;;29.37;54.94;101279.31;106768;1256;25311;-49
2023/07/22 10:10:37;;;;;;;5.80;3.50;;;;;;;29.43;55.15;101279.58;107209;1254;22533;-50
2023/07/22 10:13:09;;;;;;;5.60;4.00;;;;;;;29.51;55.18;101271.86;106935;1259;25325;-50
2023/07/22 10:15:37;;;;;;;4.30;3.40;;;;;;;29.57;55.37;101266.29;106672;1252;25436;-48
2023/07/22 10:18:05;;;;;;;5.30;3.30;;;;;;;29.62;55.37;101258.30;106756;1259;25575;-49
2023/07/22 10:20:34;;;;;;;5.40;3.40;;;;;;;29.67;55.50;101257.25;107046;1268;22554;-49
2023/07/22 10:23:01;;;;;;;4.80;3.40;;;;;;;29.73;54.95;101258.88;107046;1255;26157;-50
2023/07/22 10:25:28;;;;;;;4.60;3.20;;;;;;;29.78;54.62;101251.95;106677;1259;25541;-49
2023/07/22 10:27:55;;;;;;;7.10;3.80;;;;;;;29.83;54.38;101247.95;106916;1259;25405;-51
2023/07/22 10:30:31;;;;;;;5.70;3.20;;;;;;;29.87;54.23;101245.25;107000;1259;24378;-50
2023/07/22 10:33:01;;;;;;;6.80;3.30;;;;;;;29.90;54.16;101241.16;107165;1255;25294;-50
2023/07/22 10:35:31;;;;;;;8.40;3.70;;;;;;;29.93;54.58;101244.44;107025;1262;25325;-50
2023/07/22 10:38:15;;;;;;;4.10;3.30;;;;;;;29.97;54.39;101250.36;107252;1261;25369;-49
2023/07/22 10:40:51;;;;;;;4.70;3.30;;;;;;;30.00;54.32;101253.77;107198;1263;22516;-50
2023/07/22 10:43:26;;;;;;;4.80;3.00;;;;;;;30.02;54.95;101254.31;107240;1260;25360;-49
2023/07/22 10:45:58;;;;;;;3.40;2.60;;;;;;;30.02;54.20;101253.27;107209;1254;23123;-50
2023/07/22 10:48:34;;;;;;;5.90;3.00;;;;;;;30.02;55.12;101251.27;107302;1256;25350;-50
2023/07/22 10:51:09;;;;;;;4.90;3.30;;;;;;;30.03;55.28;101252.95;107156;1256;22526;-51
2023/07/22 10:53:43;;;;;;;8.00;3.50;;;;;;;30.05;55.51;101256.38;107236;1267;25332;-51
2023/07/22 10:56:17;;;;;;;6.90;3.00;;;;;;;30.08;55.22;101261.48;106805;1275;22552;-49
2023/07/22 10:58:47;;;;;;;5.00;3.20;;;;;;;30.12;54.97;101266.44;107195;1259;25360;-50
2023/07/22 11:01:30;;;;;;;5.60;3.30;;;;;;;30.15;54.73;101267.41;107214;1260;26621;-49
2023/07/22 11:04:15;;;;;;;9.20;3.60;;;;;;;30.18;54.77;101260.98;106940;1259;25485;-50
2023/07/22 11:06:49;;;;;;;5.30;2.70;;;;;;;30.22;54.43;101252.58;106959;1268;22527;-50
2023/07/22 11:09:34;;;;;;;7.10;3.00;;;;;;;30.24;54.27;101241.96;106823;1258;25332;-50
2023/07/22 11:12:01;;;;;;;4.40;3.00;;;;;;;30.26;54.37;101240.73;107716;1256;25325;-49
2023/07/22 11:14:31;;;;;;;6.00;3.50;;;;;;;30.26;54.64;101236.45;107272;1262;24189;-50
2023/07/22 11:16:58;;;;;;;5.10;3.40;;;;;;;30.24;55.33;101234.65;107520;1257;22412;-50
2023/07/22 11:19:25;;;;;;;6.30;3.30;;;;;;;30.22;55.82;101232.69;107241;1265;25496;-51
2023/07/22 11:21:52;;;;;;;9.40;3.50;;;;;;;30.21;55.89;101229.45;107523;1256;25259;-51